Time;durP1;ratioP1;P1;durP2;ratioP2;P2;SDS_P1;SDS_P2;PMS_P1;PMS_P2;Temp;Humidity;BMP_temperature;BMP_pressure;BME280_temperature;BME280_humidity;BME280_pressure;Samples;Min_cycle;Max_cycle;Signal;HPM_P1;HPM_P2
2022/04/03 00:01:50;;;;;;;46.97;31.13;;;;;;;;;;4904164;29;20037;-84
2022/04/03 00:04:17;;;;;;;49.97;32.20;;;;;;;;;;4906219;29;20088;-86
2022/04/03 00:06:45;;;;;;;49.90;34.17;;;;;;;;;;4905249;29;20033;-85
2022/04/03 00:09:36;;;;;;;49.57;32.20;;;;;;;;;;4890057;29;20056;-85
2022/04/03 00:12:07;;;;;;;50.37;34.17;;;;;;;;;;4905024;29;20048;-84
2022/04/03 00:15:00;;;;;;;49.60;33.20;;;;;;;;;;4890256;29;20017;-85
2022/04/03 00:17:40;;;;;;;45.38;30.73;;;;;;;;;;4905961;29;20059;-84
2022/04/03 00:20:30;;;;;;;51.40;32.23;;;;;;;;;;4905012;29;20013;-84
2022/04/03 00:23:02;;;;;;;45.83;32.37;;;;;;;;;;4837274;29;20033;-85
2022/04/03 00:25:37;;;;;;;55.35;36.45;;;;;;;;;;4866616;29;20038;-85
2022/04/03 00:28:03;;;;;;;;;;;;;;;;;;4819757;29;20034;-85
2022/04/03 00:30:31;;;;;;;51.53;32.97;;;;;;;;;;4849082;29;19897;-84
2022/04/03 00:33:13;;;;;;;54.00;33.53;;;;;;;;;;4848954;29;20038;-85
2022/04/03 00:35:42;;;;;;;54.23;35.77;;;;;;;;;;4833573;29;20025;-84
2022/04/03 00:38:20;;;;;;;47.00;33.37;;;;;;;;;;4833415;29;20038;-84
2022/04/03 00:40:50;;;;;;;47.87;32.37;;;;;;;;;;4848143;29;20073;-84
2022/04/03 00:43:17;;;;;;;46.47;30.60;;;;;;;;;;4833285;29;20042;-84
2022/04/03 00:45:48;;;;;;;45.30;32.97;;;;;;;;;;4833139;29;20026;-84
2022/04/03 00:48:16;;;;;;;45.43;29.07;;;;;;;;;;4833562;29;20034;-84
2022/04/03 00:50:56;;;;;;;47.03;30.67;;;;;;;;;;4848132;29;20059;-84
2022/04/03 00:53:54;;;;;;;45.30;30.93;;;;;;;;;;4833133;29;20043;-84
2022/04/03 00:56:36;;;;;;;42.73;29.87;;;;;;;;;;4846168;29;20033;-86
2022/04/03 00:59:10;;;;;;;44.07;30.27;;;;;;;;;;4845106;29;20041;-83
2022/04/03 01:01:37;;;;;;;42.63;28.57;;;;;;;;;;4805825;29;20030;-84
2022/04/03 01:04:04;;;;;;;37.37;27.43;;;;;;;;;;4851036;29;20101;-84
2022/04/03 01:06:37;;;;;;;35.73;27.50;;;;;;;;;;4851213;29;20010;-84
2022/04/03 01:09:24;;;;;;;36.73;26.03;;;;;;;;;;4848226;29;20030;-83
2022/04/03 01:11:56;;;;;;;39.80;27.33;;;;;;;;;;4866367;29;20016;-84
2022/04/03 01:14:47;;;;;;;35.70;26.43;;;;;;;;;;4853013;29;20014;-84
2022/04/03 01:17:22;;;;;;;36.60;26.53;;;;;;;;;;4850209;29;20034;-87
2022/04/03 01:19:52;;;;;;;29.40;24.27;;;;;;;;;;4886704;29;20031;-85
2022/04/03 01:22:19;;;;;;;30.20;22.37;;;;;;;;;;4888147;29;20029;-84
2022/04/03 01:24:49;;;;;;;25.77;21.00;;;;;;;;;;4886705;29;20213;-84
2022/04/03 01:27:17;;;;;;;23.23;19.70;;;;;;;;;;4902538;29;20030;-85
2022/04/03 01:29:59;;;;;;;23.10;18.17;;;;;;;;;;4887311;29;20037;-90
2022/04/03 01:32:27;;;;;;;22.17;17.83;;;;;;;;;;4902869;29;20029;-91
2022/04/03 01:34:55;;;;;;;21.60;18.10;;;;;;;;;;4886557;29;20037;-83
2022/04/03 01:37:23;;;;;;;22.57;17.73;;;;;;;;;;4887296;29;20450;-86
2022/04/03 01:42:39;;;;;;;25.47;19.67;;;;;;;;;;4890817;29;20133;-84
2022/04/03 01:45:07;;;;;;;25.53;20.83;;;;;;;;;;4887850;29;20033;-84
2022/04/03 01:47:41;;;;;;;26.47;20.37;;;;;;;;;;4903497;29;20059;-84
2022/04/03 01:50:09;;;;;;;28.07;22.47;;;;;;;;;;4902717;29;20025;-85
2022/04/03 01:52:35;;;;;;;28.30;21.67;;;;;;;;;;4903488;29;20025;-84
2022/04/03 02:31:49;;;;;;;29.13;22.87;;;;;;;;;;5129901;23;20060;-85
2022/04/03 02:45:17;;;;;;;45.83;28.93;;;;;;;;;;4924710;23;20049;-85
2022/04/03 02:50:45;;;;;;;35.57;25.83;;;;;;;;;;5477117;23;20052;-85
2022/04/03 02:53:15;;;;;;;38.80;27.00;;;;;;;;;;4900899;29;20088;-85
2022/04/03 02:55:44;;;;;;;38.43;27.60;;;;;;;;;;4899683;29;20045;-86
2022/04/03 02:58:17;;;;;;;34.27;23.97;;;;;;;;;;4902400;29;20056;-85
2022/04/03 03:01:08;;;;;;;38.97;27.07;;;;;;;;;;4889187;29;20062;-84
2022/04/03 03:03:50;;;;;;;32.07;23.63;;;;;;;;;;4886651;29;20479;-85
2022/04/03 03:06:38;;;;;;;34.80;24.40;;;;;;;;;;4901754;29;20051;-84
2022/04/03 03:09:23;;;;;;;34.37;24.90;;;;;;;;;;4902810;29;20009;-84
2022/04/03 06:57:39;;;;;;;16.47;11.73;;;;;;;;;;5840967;23;20063;-86
2022/04/03 07:00:06;;;;;;;13.30;9.77;;;;;;;;;;4884621;29;20065;-89
2022/04/03 07:02:40;;;;;;;16.03;9.80;;;;;;;;;;4885146;29;20067;-87
2022/04/03 07:05:30;;;;;;;12.70;9.13;;;;;;;;;;4884936;29;20018;-88
2022/04/03 07:08:45;;;;;;;14.77;10.87;;;;;;;;;;4885443;29;20057;-88
2022/04/03 07:11:58;;;;;;;13.90;10.17;;;;;;;;;;4865484;29;20014;-86
2022/04/03 07:21:26;;;;;;;16.13;12.13;;;;;;;;;;4810585;30;20210;-87
2022/04/03 07:27:26;;;;;;;26.07;15.57;;;;;;;;;;4810907;30;20100;-87
2022/04/03 07:30:15;;;;;;;13.73;10.32;;;;;;;;;;4807784;29;20051;-86
2022/04/03 07:33:09;;;;;;;18.87;11.50;;;;;;;;;;4990976;23;20113;-86
2022/04/03 07:36:18;;;;;;;12.68;9.30;;;;;;;;;;4868643;29;20037;-87
2022/04/03 07:38:57;;;;;;;17.23;11.93;;;;;;;;;;4849273;29;20110;-87
2022/04/03 07:41:51;;;;;;;17.67;11.57;;;;;;;;;;4851204;29;20029;-86
2022/04/03 07:44:51;;;;;;;12.43;9.20;;;;;;;;;;4862749;29;20042;-86
2022/04/03 07:47:28;;;;;;;15.75;10.07;;;;;;;;;;4864424;29;20085;-85
2022/04/03 07:58:17;;;;;;;13.87;9.33;;;;;;;;;;5219408;23;20064;-86
2022/04/03 08:01:25;;;;;;;11.18;7.97;;;;;;;;;;4901130;29;20053;-86
2022/04/03 08:04:22;;;;;;;14.88;9.30;;;;;;;;;;4870619;29;20029;-88
2022/04/03 08:07:14;;;;;;;16.57;9.80;;;;;;;;;;4886775;29;20037;-86
2022/04/03 08:09:46;;;;;;;13.75;9.40;;;;;;;;;;4900147;29;20033;-87
2022/04/03 08:12:35;;;;;;;16.92;11.70;;;;;;;;;;4869679;29;20057;-86
2022/04/03 08:18:16;;;;;;;15.50;9.13;;;;;;;;;;4904811;29;20048;-86
2022/04/03 08:20:55;;;;;;;14.15;9.13;;;;;;;;;;4867829;29;20052;-86
2022/04/03 08:23:43;;;;;;;13.63;8.90;;;;;;;;;;4864640;29;20067;-86
2022/04/03 08:26:17;;;;;;;14.00;9.65;;;;;;;;;;4859980;29;20075;-86
2022/04/03 08:28:44;;;;;;;;;;;;;;;;;;4853354;29;20061;-86
2022/04/03 08:31:30;;;;;;;13.60;9.07;;;;;;;;;;4884909;29;19892;-86
2022/04/03 08:33:57;;;;;;;11.63;8.65;;;;;;;;;;4870268;29;20050;-86
2022/04/03 08:36:24;;;;;;;14.00;9.95;;;;;;;;;;4869651;29;20104;-86
2022/04/03 08:39:35;;;;;;;11.70;8.30;;;;;;;;;;4855157;29;20022;-87
2022/04/03 08:42:34;;;;;;;12.38;8.75;;;128.00;2252.80;;;;;;4872796;29;20034;-86
2022/04/03 12:59:38;;;;;;;45.30;26.35;;;230.50;2252.80;;;;;;1003637;23;21556;-89
2022/04/03 13:02:07;;;;;;;21.38;16.05;;;230.90;2252.80;;;;;;4811702;29;20050;-89
2022/04/03 13:04:34;;;;;;;25.00;15.23;;;230.90;2252.80;;;;;;4827114;29;20035;-93
2022/04/03 13:07:00;;;;;;;23.30;13.80;;;230.60;2252.80;;;;;;4826678;29;20026;-91
2022/04/03 13:09:27;;;;;;;28.63;17.80;;;230.40;2252.80;;;;;;4826599;29;20034;-91
2022/04/03 13:11:58;;;;;;;36.67;21.52;;;205.20;2252.80;;;;;;4826487;29;20026;-89
2022/04/03 13:53:55;;;;;;;17.25;13.98;;;;;;;;;;4933853;23;20549;-91
2022/04/03 13:56:23;;;;;;;17.48;11.98;;;;;;;;;;4843939;29;20046;-90
2022/04/03 13:58:49;;;;;;;41.50;26.58;;;231.10;2252.80;;;;;;4843942;29;20042;-92
2022/04/03 14:01:17;;;;;;;34.03;24.73;;;;;;;;;;4828739;29;20034;-91
2022/04/03 14:03:46;;;;;;;67.90;42.72;;;281.70;2278.40;;;;;;4844041;29;20087;-90
2022/04/03 14:06:12;;;;;;;67.45;44.03;;;307.80;2048.00;;;;;;4828873;29;20034;-90
2022/04/03 14:08:38;;;;;;;37.15;24.38;;;358.80;1792.00;;;;;;4828788;29;20161;-89
2022/04/03 14:11:05;;;;;;;15.30;12.68;;;307.70;1868.80;;;;;;4828439;29;20096;-90
2022/04/03 14:13:33;;;;;;;32.40;23.80;;;358.40;1792.00;;;;;;4828259;29;20034;-88
2022/04/03 14:16:01;;;;;;;20.50;16.50;;;332.90;1920.00;;;;;;4828766;29;20030;-93
2022/04/03 14:18:27;;;;;;;13.80;11.32;;;307.40;1971.20;;;;;;4828804;29;20164;-88
2022/04/03 14:20:57;;;;;;;23.23;18.95;;;281.80;1945.60;;;;;;4844869;29;20421;-88
2022/04/03 14:23:36;;;;;;;19.20;14.07;;;281.70;2022.40;;;;;;4828492;29;20040;-88
2022/04/03 14:26:04;;;;;;;18.55;13.30;;;281.60;2150.40;;;;;;4828721;29;20150;-89
2022/04/03 14:28:31;;;;;;;18.95;15.77;;;256.20;2124.80;;;;;;4828453;29;20126;-91
2022/04/03 14:30:57;;;;;;;22.77;17.42;;;230.80;2252.80;;;;;;4828522;29;20107;-89
2022/04/03 14:33:23;;;;;;;20.70;16.52;;;205.70;2252.80;;;;;;4828519;29;20450;-90
2022/04/03 14:35:49;;;;;;;24.20;18.05;;;205.50;2252.80;;;;;;4828413;29;20038;-89
2022/04/03 14:38:15;;;;;;;24.85;17.48;;;205.40;2252.80;;;;;;4828299;29;20045;-93
2022/04/03 14:40:41;;;;;;;17.38;12.32;;;205.30;2252.80;;;;;;4827990;29;20059;-90
2022/04/03 14:43:07;;;;;;;15.20;11.77;;;205.10;2252.80;;;;;;4828520;29;20030;-89
2022/04/03 14:45:35;;;;;;;19.90;15.13;;;204.90;2252.80;;;;;;4828518;29;20034;-90
2022/04/03 14:48:01;;;;;;;26.92;17.23;;;204.90;2252.80;;;;;;4828563;29;20129;-91
2022/04/03 14:50:29;;;;;;;22.17;16.38;;;204.90;2252.80;;;;;;4827987;29;20033;-89
2022/04/03 14:52:55;;;;;;;21.73;15.82;;;204.80;2252.80;;;;;;4828042;29;20088;-90
2022/04/03 14:55:21;;;;;;;20.13;17.30;;;179.80;2252.80;;;;;;4828156;29;20069;-90
2022/04/03 15:17:49;;;;;;;27.15;19.05;;;;;;;;;;4844569;29;20065;-89
2022/04/03 15:25:47;;;;;;;26.50;19.05;;;;;;;;;;4844284;29;20045;-91
2022/04/03 15:28:13;;;;;;;34.15;22.25;;;;;;;;;;4842609;29;20038;-92
2022/04/03 15:36:31;;;;;;;31.48;21.85;;;179.70;2252.80;;;;;;4886284;24;20054;-89
2022/04/03 15:56:13;;;;;;;35.05;25.92;;;;;;;;;;4830866;29;20053;-89
2022/04/03 17:05:38;;;;;;;22.17;15.20;;;;;;;;;;4165804;27;20058;-79
2022/04/03 17:14:03;;;;;;;25.48;15.23;;;;;;;;;;4846518;29;20029;-78
2022/04/03 17:17:06;;;;;;;22.70;15.00;;;;;;;;;;4800720;29;20056;-78
2022/04/03 17:20:20;;;;;;;28.95;15.75;;;;;;;;;;4828224;29;20045;-78
2022/04/03 17:23:47;;;;;;;30.38;15.73;;;;;;;;;;4790874;30;20032;-78
2022/04/03 17:27:21;;;;;;;32.40;19.40;;;;;;;;;;4770861;30;20100;-77
2022/04/03 17:33:34;;;;;;;32.05;21.02;;;;;;;;;;4701098;30;20040;-77
2022/04/03 17:40:03;;;;;;;32.85;19.23;;;;;;;;;;4617322;31;20059;-78
2022/04/03 17:43:31;;;;;;;30.00;18.85;;;;;;;;;;4618760;31;20103;-78
2022/04/03 17:46:28;;;;;;;30.83;18.98;;;153.70;2252.80;;;;;;4550809;31;20046;-78
2022/04/03 17:49:51;;;;;;;30.92;20.42;;;153.70;2252.80;;;;;;4549978;31;20031;-80
2022/04/03 17:59:50;;;;;;;32.40;20.50;;;153.70;2252.80;;;;;;4584138;31;20056;-78
2022/04/03 18:02:48;;;;;;;30.90;19.67;;;;;;;;;;4603117;31;20052;-79
2022/04/03 18:06:02;;;;;;;31.17;19.92;;;;;;;;;;4591991;31;20059;-78
2022/04/03 18:09:06;;;;;;;29.25;18.40;;;153.90;2252.80;;;;;;4578335;31;20102;-78
2022/04/03 18:15:47;;;;;;;29.83;19.25;;;;;;;;;;4601076;31;20158;-79
2022/04/03 18:18:36;;;;;;;29.45;17.90;;;;;;;;;;4600561;31;20053;-78
2022/04/03 18:21:29;;;;;;;26.75;17.25;;;;;;;;;;4616034;31;20047;-78
2022/04/03 18:24:20;;;;;;;31.83;19.67;;;;;;;;;;4616941;31;20152;-78
2022/04/03 18:27:19;;;;;;;25.73;18.42;;;;;;;;;;4618296;31;20048;-78
2022/04/03 18:30:23;;;;;;;28.70;18.77;;;;;;;;;;4664910;30;20086;-81
2022/04/03 18:33:29;;;;;;;32.22;19.35;;;;;;;;;;4671131;30;20027;-80
2022/04/03 18:36:42;;;;;;;29.45;19.33;;;;;;;;;;4661140;30;20055;-81
2022/04/03 18:39:17;;;;;;;30.52;20.77;;;;;;;;;;4608254;30;20028;-78
2022/04/03 18:50:29;;;;;;;40.78;26.55;;;;;;;;;;4907807;23;20049;-78
2022/04/03 18:53:32;;;;;;;36.35;23.35;;;;;;;;;;4848916;29;20018;-81
2022/04/03 19:11:44;;;;;;;29.73;20.48;;;;;;;;;;4737101;27;19992;-78
2022/04/03 19:14:20;;;;;;;26.67;20.42;;;;;;;;;;4860008;29;20038;-78
2022/04/03 19:17:12;;;;;;;31.17;19.77;;;;;;;;;;4848798;29;20038;-78
2022/04/03 19:19:38;;;;;;;30.10;21.50;;;;;;;;;;4845280;29;20038;-78
2022/04/03 19:22:13;;;;;;;27.50;18.80;;;;;;;;;;4825718;29;20047;-78
2022/04/03 19:24:50;;;;;;;27.67;18.88;;;;;;;;;;4825757;29;20038;-78
2022/04/03 19:28:03;;;;;;;23.52;17.23;;;;;;;;;;4957345;23;20058;-79
2022/04/03 19:30:56;;;;;;;31.98;20.05;;;;;;;;;;4858014;29;20045;-80
2022/04/03 19:33:36;;;;;;;31.02;20.20;;;;;;;;;;4830177;29;20038;-80
2022/04/03 19:38:46;;;;;;;34.05;20.23;;;;;;;;;;4841380;29;20059;-78
2022/04/03 19:41:14;;;;;;;31.45;21.58;;;;;;;;;;4842887;29;20058;-78
2022/04/03 19:43:54;;;;;;;41.50;20.77;;;;;;;;;;4840224;29;20042;-78
2022/04/03 19:46:35;;;;;;;33.58;21.95;;;;;;;;;;4841946;29;20042;-80
2022/04/03 19:51:38;;;;;;;36.72;21.98;;;;;;;;;;4126562;27;20080;-78
2022/04/03 19:54:18;;;;;;;33.83;22.02;;;;;;;;;;4841880;29;20038;-79
2022/04/03 19:56:47;;;;;;;34.42;21.90;;;;;;;;;;4861630;24;20062;-78
2022/04/03 19:59:14;;;;;;;35.70;22.42;;;;;;;;;;4865412;29;20046;-78
2022/04/03 20:01:41;;;;;;;32.65;22.48;;;;;;;;;;4855586;29;20030;-77
2022/04/03 20:04:08;;;;;;;32.05;22.55;;;;;;;;;;4824989;29;20117;-77
2022/04/03 20:06:37;;;;;;;32.38;22.13;;;;;;;;;;4857137;29;20086;-77
2022/04/03 20:09:03;;;;;;;31.85;21.70;;;;;;;;;;4856555;29;20038;-77
2022/04/03 20:11:31;;;;;;;40.42;21.95;;;;;;;;;;4827406;29;20026;-78
2022/04/03 20:13:57;;;;;;;32.03;22.23;;;;;;;;;;4858044;29;20041;-78
2022/04/03 20:16:23;;;;;;;29.67;22.02;;;;;;;;;;4860567;29;20090;-77
2022/04/03 20:19:10;;;;;;;34.00;21.33;;;;;;;;;;4828059;29;20042;-80
2022/04/03 20:22:03;;;;;;;32.58;21.98;;;;;;;;;;4805990;29;20038;-78
2022/04/03 20:24:30;;;;;;;33.33;22.38;;;;;;;;;;4818990;29;20051;-78
2022/04/03 20:26:57;;;;;;;30.03;20.33;;;;;;;;;;4820298;29;20035;-78
2022/04/03 20:29:24;;;;;;;39.42;22.17;;;;;;;;;;4804741;29;20122;-78
2022/04/03 20:32:02;;;;;;;33.63;22.13;;;;;;;;;;4819912;29;20525;-78
2022/04/03 20:34:34;;;;;;;30.23;21.15;;;;;;;;;;4820984;29;20437;-78
2022/04/03 20:37:22;;;;;;;34.63;20.73;;;;;;;;;;4777153;30;20031;-78
2022/04/03 20:39:53;;;;;;;40.05;21.70;;;;;;;;;;4820638;29;20118;-78
2022/04/03 20:42:41;;;;;;;34.78;21.50;;;;;;;;;;4805099;30;20038;-78
2022/04/03 20:45:47;;;;;;;32.00;19.33;;;;;;;;;;4770472;30;20040;-80
2022/04/03 20:48:45;;;;;;;31.23;18.73;;;;;;;;;;4753040;30;20067;-80
2022/04/03 20:51:40;;;;;;;33.72;20.35;;;;;;;;;;4751720;30;20049;-80
2022/04/03 20:54:28;;;;;;;32.65;21.50;;;;;;;;;;4786817;30;20031;-78
2022/04/03 20:57:00;;;;;;;31.75;21.15;;;;;;;;;;4785560;30;20050;-78
2022/04/03 20:59:53;;;;;;;34.95;21.83;;;;;;;;;;4785833;30;20047;-80
2022/04/03 21:02:52;;;;;;;30.10;20.00;;;;;;;;;;4732756;30;20128;-80
2022/04/03 21:05:21;;;;;;;26.63;18.02;;;;;;;;;;4717405;30;20038;-78
2022/04/03 21:07:47;;;;;;;39.53;19.38;;;;;;;;;;4714529;30;20127;-78
2022/04/03 21:10:14;;;;;;;35.35;19.70;;;;;;;;;;4691295;30;20054;-78
2022/04/03 21:12:41;;;;;;;29.95;19.85;;;;;;;;;;4708364;30;20077;-78
2022/04/03 21:15:12;;;;;;;29.35;20.35;;;;;;;;;;4699292;30;20046;-78
2022/04/03 21:17:41;;;;;;;34.13;19.15;;;;;;;;;;4683227;30;20046;-78
2022/04/03 21:20:21;;;;;;;29.95;19.77;;;;;;;;;;4701510;30;20045;-78
2022/04/03 21:22:48;;;;;;;31.27;20.45;;;;;;;;;;4684275;30;20046;-78
2022/04/03 21:25:16;;;;;;;27.05;18.20;;;;;;;;;;4689231;30;20050;-78
2022/04/03 21:27:44;;;;;;;28.58;18.95;;;;;;;;;;4686577;30;20544;-78
2022/04/03 21:30:31;;;;;;;30.45;19.85;;;;;;;;;;4682508;30;20042;-78
2022/04/03 21:32:59;;;;;;;32.03;19.17;;;;;;;;;;4692236;30;20079;-78
2022/04/03 21:35:25;;;;;;;25.88;19.02;;;;;;;;;;4685807;30;20042;-78
2022/04/03 21:37:54;;;;;;;30.00;18.90;;;103.10;2227.20;;;;;;4699218;30;20057;-78
2022/04/03 21:40:22;;;;;;;31.40;19.00;;;103.10;2227.20;;;;;;4684189;30;20120;-78
2022/04/03 21:43:00;;;;;;;29.55;18.98;;;103.10;2227.20;;;;;;4726956;30;20063;-78
2022/04/03 21:45:47;;;;;;;29.43;18.03;;;103.10;2227.20;;;;;;4745749;30;20066;-78
2022/04/03 21:48:56;;;;;;;28.70;17.05;;;103.10;2227.20;;;;;;4806255;30;20019;-78
2022/04/03 21:54:37;;;;;;;26.55;15.98;;;103.10;2227.20;;;;;;5501692;24;20109;-78
2022/04/03 21:58:11;;;;;;;31.20;18.25;;;103.00;2227.20;;;;;;4758287;30;20044;-79
2022/04/03 22:01:35;;;;;;;30.17;18.05;;;103.00;2227.20;;;;;;4688996;30;20081;-79
2022/04/03 22:34:31;;;;;;;25.43;17.97;;;77.50;2227.20;;;;;;4819632;29;20127;-80
2022/04/03 22:38:06;;;;;;;33.60;17.60;;;77.50;2227.20;;;;;;4832415;29;20053;-79
2022/04/03 22:40:36;;;;;;;34.03;21.95;;;77.50;2227.20;;;;;;4760389;30;20048;-79
2022/04/03 22:43:03;;;;;;;34.73;20.73;;;77.50;2227.20;;;;;;4763281;30;20048;-78
2022/04/03 22:45:40;;;;;;;28.87;18.53;;;76.90;2227.20;;;;;;4753212;30;20503;-79
2022/04/03 22:48:08;;;;;;;26.73;17.97;;;77.50;2227.20;;;;;;4762519;30;20052;-78
2022/04/03 22:50:36;;;;;;;30.03;18.20;;;77.40;2227.20;;;;;;4761381;30;20044;-78
2022/04/03 22:53:09;;;;;;;28.00;19.50;;;77.40;2227.20;;;;;;4767352;30;20072;-78
2022/04/03 22:55:36;;;;;;;27.58;19.63;;;77.40;2227.20;;;;;;4763186;30;20510;-79
2022/04/03 22:58:04;;;;;;;29.83;20.07;;;77.30;2227.20;;;;;;4745551;30;20118;-78
2022/04/03 23:00:35;;;;;;;32.27;20.77;;;77.70;2227.20;;;;;;4764453;30;20031;-79
2022/04/03 23:03:02;;;;;;;;;;;77.30;2227.20;;;;;;4767186;30;20052;-78
2022/04/03 23:05:35;;;;;;;35.50;22.23;;;77.40;2227.20;;;;;;4749590;30;19915;-78
2022/04/03 23:08:02;;;;;;;32.70;21.10;;;77.10;2227.20;;;;;;4770024;30;20096;-79
2022/04/03 23:10:30;;;;;;;33.13;21.70;;;77.30;2227.20;;;;;;4765222;30;20048;-78
2022/04/03 23:12:56;;;;;;;34.20;20.73;;;77.40;2227.20;;;;;;4753805;30;20032;-79
2022/04/03 23:15:25;;;;;;;32.72;23.67;;;77.40;2227.20;;;;;;4793594;30;20423;-79
2022/04/03 23:17:51;;;;;;;31.87;20.03;;;77.60;2227.20;;;;;;4810499;29;20223;-78
2022/04/03 23:20:19;;;;;;;35.13;20.60;;;77.70;2227.20;;;;;;4816593;29;20019;-79
2022/04/03 23:22:46;;;;;;;32.85;23.80;;;77.70;2227.20;;;;;;4813594;29;20414;-78
2022/04/03 23:25:15;;;;;;;33.37;21.50;;;77.70;2227.20;;;;;;4815237;29;20118;-79
2022/04/03 23:27:48;;;;;;;33.40;20.20;;;102.40;2227.20;;;;;;4815905;29;20034;-79
2022/04/03 23:30:17;;;;;;;35.08;20.58;;;102.60;2227.20;;;;;;4815707;29;20027;-79
2022/04/03 23:32:45;;;;;;;34.13;20.83;;;77.60;2227.20;;;;;;4815536;29;20031;-79
2022/04/03 23:35:16;;;;;;;43.42;23.02;;;77.60;2227.20;;;;;;4816831;29;20034;-78
2022/04/03 23:37:50;;;;;;;43.50;24.10;;;77.50;2227.20;;;;;;4815895;29;20051;-79
2022/04/03 23:40:18;;;;;;;36.60;22.40;;;77.40;2227.20;;;;;;4835659;29;20060;-79
2022/04/03 23:42:47;;;;;;;35.40;21.20;;;77.50;2227.20;;;;;;4819438;29;20031;-79
2022/04/03 23:45:16;;;;;;;38.80;21.45;;;77.50;2227.20;;;;;;4814508;29;20034;-79
2022/04/03 23:47:45;;;;;;;41.87;20.50;;;77.40;2227.20;;;;;;4832553;29;20030;-79
2022/04/03 23:50:12;;;;;;;37.20;19.70;;;77.50;2227.20;;;;;;4817616;29;20027;-78
2022/04/03 23:52:46;;;;;;;37.57;20.73;;;77.40;2227.20;;;;;;4817882;29;20085;-79
2022/04/03 23:55:14;;;;;;;41.30;21.20;;;77.40;2227.20;;;;;;4817106;29;20030;-78
2022/04/03 23:57:42;;;;;;;37.23;21.70;;;77.50;2227.20;;;;;;4831739;29;20079;-78
